createdAt,value
2018-12-05T00:00:21.852Z,4.25
2018-12-05T00:02:49.247Z,4.38
2018-12-05T00:05:16.579Z,4.54
2018-12-05T00:07:44.936Z,4.56
2018-12-05T00:10:12.394Z,4.55
2018-12-05T00:12:39.711Z,4.64
2018-12-05T00:15:07.587Z,4.60
2018-12-05T00:17:35.391Z,4.70
2018-12-05T00:20:03.120Z,4.64
2018-12-05T00:22:30.539Z,4.52
2018-12-05T00:24:57.847Z,4.47
2018-12-05T00:27:25.151Z,4.54
2018-12-05T00:29:52.439Z,4.30
2018-12-05T00:32:19.755Z,4.48
2018-12-05T00:34:47.022Z,4.45
2018-12-05T00:37:14.394Z,4.47
2018-12-05T00:39:41.663Z,4.47
2018-12-05T00:42:09.070Z,4.56
2018-12-05T00:44:36.450Z,4.55
2018-12-05T00:47:03.764Z,4.48
2018-12-05T00:49:31.062Z,4.43
2018-12-05T00:51:58.330Z,4.22
2018-12-05T00:54:25.590Z,4.35
2018-12-05T00:56:52.910Z,4.25
2018-12-05T00:59:20.198Z,4.39
2018-12-05T01:01:47.503Z,4.29
2018-12-05T01:04:14.779Z,4.23
2018-12-05T01:06:42.319Z,4.29
2018-12-05T01:09:11.951Z,4.08
2018-12-05T01:11:40.248Z,4.14
2018-12-05T01:14:07.557Z,4.00
2018-12-05T01:16:51.907Z,4.29
2018-12-05T01:19:19.187Z,4.31
2018-12-05T01:21:46.458Z,4.41
2018-12-05T01:24:13.772Z,4.39
2018-12-05T01:26:41.103Z,4.34
2018-12-05T01:29:08.522Z,4.44
2018-12-05T01:31:35.819Z,4.42
2018-12-05T01:34:03.163Z,4.36
2018-12-05T01:36:30.446Z,4.34
2018-12-05T01:38:57.742Z,4.25
2018-12-05T01:41:25.046Z,4.08
2018-12-05T01:43:52.662Z,4.29
2018-12-05T01:46:19.952Z,4.20
2018-12-05T01:48:47.230Z,4.33
2018-12-05T01:51:14.540Z,4.35
2018-12-05T01:53:41.822Z,4.41
2018-12-05T01:56:09.107Z,4.35
2018-12-05T01:58:37.459Z,4.17
2018-12-05T02:01:04.770Z,4.22
2018-12-05T02:03:32.074Z,4.10
2018-12-05T02:05:59.378Z,4.06
2018-12-05T02:08:26.715Z,4.07
2018-12-05T02:10:54.002Z,4.06
2018-12-05T02:13:21.299Z,4.13
2018-12-05T02:15:48.592Z,4.11
2018-12-05T02:18:15.886Z,4.10
2018-12-05T02:20:43.426Z,4.11
2018-12-05T02:23:10.718Z,3.97
2018-12-05T02:25:38.498Z,4.05
2018-12-05T02:28:06.843Z,4.05
2018-12-05T02:30:34.146Z,3.98
2018-12-05T02:33:02.407Z,3.88
2018-12-05T02:35:29.722Z,3.98
2018-12-05T02:37:57.034Z,3.99
2018-12-05T02:40:24.306Z,3.88
2018-12-05T02:42:51.594Z,3.89
2018-12-05T02:45:18.900Z,3.87
2018-12-05T02:47:46.284Z,3.81
2018-12-05T02:50:13.682Z,3.68
2018-12-05T02:52:40.970Z,3.60
2018-12-05T02:55:08.274Z,3.56
2018-12-05T02:57:35.574Z,3.55
2018-12-05T03:00:04.642Z,3.54
2018-12-05T03:02:33.968Z,3.46
2018-12-05T03:05:01.303Z,3.36
2018-12-05T03:07:28.610Z,3.39
2018-12-05T03:09:55.975Z,3.29
2018-12-05T03:12:23.275Z,3.24
2018-12-05T03:14:50.554Z,3.28
2018-12-05T03:17:17.840Z,3.13
2018-12-05T03:19:45.114Z,3.21
2018-12-05T03:22:12.543Z,3.15
2018-12-05T03:24:39.824Z,3.00
2018-12-05T03:27:07.118Z,3.15
2018-12-05T03:29:34.414Z,3.13
2018-12-05T03:32:03.788Z,3.15
2018-12-05T03:34:31.171Z,3.08
2018-12-05T03:36:58.514Z,3.13
2018-12-05T03:39:25.859Z,3.05
2018-12-05T03:41:53.155Z,2.98
2018-12-05T03:44:20.446Z,3.07
2018-12-05T03:46:47.755Z,3.08
2018-12-05T03:49:15.138Z,3.12
2018-12-05T03:51:42.434Z,3.18
2018-12-05T03:54:09.702Z,3.10
2018-12-05T03:56:36.994Z,3.18
2018-12-05T03:59:04.408Z,3.25
2018-12-05T04:01:31.721Z,3.37
2018-12-05T04:03:59.117Z,3.38
2018-12-05T04:06:26.442Z,3.33
2018-12-05T04:08:53.808Z,3.43
2018-12-05T04:11:21.139Z,3.47
2018-12-05T04:13:48.664Z,3.50
2018-12-05T04:16:16.015Z,3.38
2018-12-05T04:18:43.328Z,3.35
2018-12-05T04:21:10.651Z,3.46
2018-12-05T04:23:37.987Z,3.50
2018-12-05T04:26:05.311Z,3.45
2018-12-05T04:28:32.616Z,3.47
2018-12-05T04:30:59.947Z,3.39
2018-12-05T04:33:29.317Z,3.49
2018-12-05T04:35:56.627Z,3.34
2018-12-05T04:38:23.976Z,3.22
2018-12-05T04:40:51.342Z,3.33
2018-12-05T04:43:18.664Z,3.21
2018-12-05T04:45:46.018Z,3.15
2018-12-05T04:48:13.311Z,3.07
2018-12-05T04:50:40.718Z,3.06
2018-12-05T04:53:08.014Z,3.04
2018-12-05T04:55:36.423Z,3.11
2018-12-05T04:58:03.748Z,2.98
2018-12-05T05:00:31.791Z,2.83
2018-12-05T05:02:59.206Z,2.81
2018-12-05T05:05:26.735Z,2.90
2018-12-05T05:07:54.037Z,2.73
2018-12-05T05:10:21.339Z,2.75
2018-12-05T05:12:48.663Z,2.68
2018-12-05T05:15:17.006Z,2.61
2018-12-05T05:17:45.366Z,2.57
2018-12-05T05:20:12.787Z,2.63
2018-12-05T05:22:40.113Z,2.60
2018-12-05T05:25:07.654Z,2.64
2018-12-05T05:27:34.970Z,2.43
2018-12-05T05:30:02.815Z,2.48
2018-12-05T05:32:30.258Z,2.51
2018-12-05T05:34:57.543Z,2.56
2018-12-05T05:37:24.849Z,2.37
2018-12-05T05:39:53.414Z,2.47
2018-12-05T05:42:20.730Z,2.43
2018-12-05T05:44:48.059Z,2.40
2018-12-05T05:47:15.374Z,2.42
2018-12-05T05:49:42.702Z,2.36
2018-12-05T05:52:10.047Z,2.35
2018-12-05T05:54:37.333Z,2.24
2018-12-05T05:57:04.770Z,2.18
2018-12-05T05:59:32.041Z,2.19
2018-12-05T06:01:59.363Z,2.32
2018-12-05T06:04:26.690Z,2.17
2018-12-05T06:06:54.070Z,2.14
2018-12-05T06:09:21.375Z,2.18
2018-12-05T06:11:48.719Z,2.28
2018-12-05T06:14:16.031Z,2.24
2018-12-05T06:16:43.351Z,2.16
2018-12-05T06:19:10.669Z,2.14
2018-12-05T06:21:38.054Z,2.16
2018-12-05T06:24:05.523Z,2.18
2018-12-05T06:26:32.844Z,2.14
2018-12-05T06:29:00.175Z,2.31
2018-12-05T06:31:27.499Z,2.32
2018-12-05T06:33:54.956Z,2.20
2018-12-05T06:36:22.303Z,2.22
2018-12-05T06:38:49.617Z,2.31
2018-12-05T06:41:16.915Z,2.30
2018-12-05T06:43:44.226Z,2.23
2018-12-05T06:46:11.547Z,2.27
2018-12-05T06:48:38.884Z,2.29
2018-12-05T06:51:06.299Z,2.24
2018-12-05T06:53:33.615Z,2.36
2018-12-05T06:56:00.938Z,2.17
2018-12-05T06:58:28.250Z,2.28
2018-12-05T07:00:55.559Z,2.28
2018-12-05T07:03:22.911Z,2.11
2018-12-05T07:05:50.236Z,2.19
2018-12-05T07:08:17.589Z,2.21
2018-12-05T07:10:44.915Z,2.13
2018-12-05T07:13:12.258Z,2.03
2018-12-05T07:15:39.679Z,2.20
2018-12-05T07:18:07.067Z,2.09
2018-12-05T07:20:34.374Z,2.14
2018-12-05T07:23:01.978Z,2.18
2018-12-05T07:25:29.319Z,2.12
2018-12-05T07:27:56.618Z,2.11
2018-12-05T07:30:29.418Z,2.03
2018-12-05T07:32:53.310Z,2.06
2018-12-05T07:35:20.647Z,2.16
2018-12-05T07:37:47.955Z,2.18
2018-12-05T07:40:16.487Z,2.11
2018-12-05T07:42:44.127Z,2.06
2018-12-05T07:45:11.451Z,2.08
2018-12-05T07:47:38.746Z,2.23
2018-12-05T07:50:06.251Z,2.27
2018-12-05T07:52:33.572Z,2.30
2018-12-05T07:55:00.895Z,2.28
2018-12-05T07:57:28.215Z,2.27
2018-12-05T07:59:55.687Z,2.52
2018-12-05T08:02:23.009Z,2.46
2018-12-05T08:04:50.474Z,2.58
2018-12-05T08:07:17.832Z,2.52
2018-12-05T08:09:45.171Z,2.67
2018-12-05T08:12:12.489Z,2.63
2018-12-05T08:14:39.824Z,2.59
2018-12-05T08:17:07.118Z,2.41
2018-12-05T08:19:34.483Z,2.71
2018-12-05T08:22:01.967Z,2.62
2018-12-05T08:24:29.331Z,2.75
2018-12-05T08:26:56.816Z,2.72
2018-12-05T08:29:24.159Z,2.68
2018-12-05T08:31:51.510Z,2.90
2018-12-05T08:34:18.842Z,2.96
2018-12-05T08:36:46.187Z,3.08
2018-12-05T08:39:13.650Z,3.15
2018-12-05T08:41:41.104Z,3.05
2018-12-05T08:44:08.535Z,2.93
2018-12-05T08:46:35.983Z,3.24
2018-12-05T08:49:03.449Z,3.40
2018-12-05T08:51:30.962Z,3.55
2018-12-05T08:53:58.324Z,3.52
2018-12-05T08:56:25.668Z,3.53
2018-12-05T08:58:53.087Z,3.68
2018-12-05T09:01:20.551Z,3.74
2018-12-05T09:03:48.067Z,3.66
2018-12-05T09:06:15.631Z,3.95
2018-12-05T09:08:43.100Z,3.64
2018-12-05T09:11:10.439Z,3.94
2018-12-05T09:13:37.911Z,3.89
2018-12-05T09:16:05.250Z,3.79
2018-12-05T09:18:32.603Z,3.99
2018-12-05T09:20:59.939Z,3.96
2018-12-05T09:23:27.242Z,4.28
2018-12-05T09:25:54.731Z,4.23
2018-12-05T09:28:22.167Z,4.29
2018-12-05T09:30:49.496Z,4.61
2018-12-05T09:33:17.911Z,4.39
2018-12-05T09:35:45.239Z,4.51
2018-12-05T09:38:12.579Z,4.40
2018-12-05T09:40:39.920Z,4.55
2018-12-05T09:43:07.261Z,4.52
2018-12-05T09:45:34.571Z,4.72
2018-12-05T09:48:03.195Z,4.88
2018-12-05T09:50:30.508Z,4.64
2018-12-05T09:52:57.951Z,5.00
2018-12-05T09:55:25.375Z,4.85
2018-12-05T09:57:52.920Z,4.89
2018-12-05T10:00:20.251Z,4.81
2018-12-05T10:02:47.812Z,4.69
2018-12-05T10:05:15.131Z,4.95
2018-12-05T10:07:42.474Z,4.83
2018-12-05T10:10:09.819Z,5.06
2018-12-05T10:12:37.150Z,4.99
2018-12-05T10:15:05.641Z,4.94
2018-12-05T10:17:32.994Z,4.92
2018-12-05T10:20:00.418Z,5.30
2018-12-05T10:22:27.763Z,5.22
2018-12-05T10:24:55.082Z,5.49
2018-12-05T10:27:22.591Z,5.30
2018-12-05T10:29:49.927Z,5.31
2018-12-05T10:32:17.255Z,5.36
2018-12-05T10:34:44.576Z,5.40
2018-12-05T10:37:12.023Z,5.44
2018-12-05T10:39:39.355Z,5.22
2018-12-05T10:42:06.731Z,5.66
2018-12-05T10:44:34.163Z,5.42
2018-12-05T10:47:01.621Z,5.57
2018-12-05T10:49:29.099Z,5.50
2018-12-05T10:51:56.542Z,5.74
2018-12-05T10:54:23.871Z,5.73
2018-12-05T10:56:51.327Z,5.88
2018-12-05T10:59:18.661Z,5.64
2018-12-05T11:01:51.659Z,5.50
2018-12-05T11:04:24.667Z,5.63
2018-12-05T11:06:57.670Z,5.52
2018-12-05T11:09:30.903Z,5.63
2018-12-05T11:12:03.899Z,5.74
2018-12-05T11:14:37.063Z,5.42
2018-12-05T11:17:10.167Z,5.67
2018-12-05T11:19:43.199Z,5.75
2018-12-05T11:23:14.683Z,5.80
2018-12-05T11:25:43.163Z,5.56
2018-12-05T11:28:10.496Z,5.73
2018-12-05T11:30:37.815Z,5.48
2018-12-05T11:33:05.162Z,5.47
2018-12-05T11:35:32.458Z,5.37
2018-12-05T11:37:59.761Z,5.37
2018-12-05T11:40:27.239Z,5.30
2018-12-05T11:42:54.675Z,5.43
2018-12-05T11:45:21.986Z,5.33
2018-12-05T11:47:49.306Z,5.39
2018-12-05T11:50:16.610Z,5.39
2018-12-05T11:52:43.923Z,5.27
2018-12-05T11:55:11.319Z,5.11
2018-12-05T11:57:38.627Z,5.08
2018-12-05T12:00:07.063Z,5.33
2018-12-05T12:02:34.379Z,4.92
2018-12-05T12:05:04.158Z,4.82
2018-12-05T12:07:31.494Z,4.79
2018-12-05T12:09:59.110Z,4.77
2018-12-05T12:12:32.192Z,4.83
2018-12-05T12:14:59.622Z,4.91
2018-12-05T12:17:27.086Z,4.81
2018-12-05T12:19:54.384Z,4.69
2018-12-05T12:22:21.703Z,4.87
2018-12-05T12:24:49.016Z,5.09
2018-12-05T12:27:16.568Z,5.12
2018-12-05T12:29:44.003Z,5.07
2018-12-05T12:32:11.310Z,5.68
2018-12-05T12:34:38.639Z,6.12
2018-12-05T12:37:05.950Z,6.55
2018-12-05T12:39:33.255Z,6.36
2018-12-05T12:42:00.548Z,5.80
2018-12-05T12:44:27.899Z,5.79
2018-12-05T12:46:55.204Z,5.65
2018-12-05T12:49:22.524Z,5.83
2018-12-05T12:51:49.827Z,5.94
2018-12-05T12:54:17.131Z,6.19
2018-12-05T12:56:44.435Z,6.66
2018-12-05T12:59:11.756Z,6.36
2018-12-05T13:01:39.058Z,5.75
2018-12-05T13:04:06.394Z,5.86
2018-12-05T13:06:33.794Z,5.96
2018-12-05T13:09:01.906Z,6.03
2018-12-05T13:11:31.591Z,5.94
2018-12-05T13:13:58.907Z,5.79
2018-12-05T13:16:26.212Z,5.59
2018-12-05T13:18:53.535Z,5.51
2018-12-05T13:21:21.847Z,5.74
2018-12-05T13:23:49.175Z,5.75
2018-12-05T13:26:16.475Z,5.74
2018-12-05T13:28:43.825Z,5.68
2018-12-05T13:31:12.068Z,5.22
2018-12-05T13:33:39.342Z,5.33
2018-12-05T13:36:06.806Z,5.62
2018-12-05T13:38:34.102Z,5.69
2018-12-05T13:41:01.482Z,5.52
2018-12-05T13:43:30.103Z,5.46
2018-12-05T13:45:57.522Z,5.20
2018-12-05T13:48:25.047Z,5.27
2018-12-05T13:50:52.472Z,5.20
2018-12-05T13:53:19.831Z,5.36
2018-12-05T13:55:48.250Z,5.14
2018-12-05T13:58:15.847Z,5.42
2018-12-05T14:00:43.311Z,5.16
2018-12-05T14:03:10.616Z,5.12
2018-12-05T14:05:39.263Z,5.11
2018-12-05T14:08:06.570Z,5.30
2018-12-05T14:10:33.891Z,4.88
2018-12-05T14:13:01.263Z,4.90
2018-12-05T14:15:28.644Z,4.99
2018-12-05T14:18:01.363Z,5.01
2018-12-05T14:20:25.459Z,4.75
2018-12-05T14:22:52.771Z,4.66
2018-12-05T14:25:20.082Z,4.64
2018-12-05T14:27:47.708Z,4.48
2018-12-05T14:30:15.077Z,4.44
2018-12-05T14:32:42.558Z,4.52
2018-12-05T14:35:09.944Z,4.27
2018-12-05T14:37:37.380Z,4.41
2018-12-05T14:40:05.285Z,4.42
2018-12-05T14:42:33.783Z,4.26
2018-12-05T14:45:01.133Z,4.39
2018-12-05T14:47:28.418Z,4.12
2018-12-05T14:49:55.941Z,4.28
2018-12-05T14:52:23.236Z,4.18
2018-12-05T14:54:50.523Z,4.09
2018-12-05T14:57:18.001Z,4.18
2018-12-05T14:59:45.312Z,4.07
2018-12-05T15:02:12.622Z,3.97
2018-12-05T15:04:40.167Z,3.91
2018-12-05T15:07:07.471Z,3.86
2018-12-05T15:09:34.819Z,3.78
2018-12-05T15:12:02.188Z,3.98
2018-12-05T15:14:29.499Z,3.74
2018-12-05T15:16:56.847Z,3.76
2018-12-05T15:19:24.251Z,3.92
2018-12-05T15:21:51.655Z,3.71
2018-12-05T15:24:18.980Z,3.61
2018-12-05T15:26:46.442Z,3.66
2018-12-05T15:29:17.239Z,3.59
2018-12-05T15:31:44.675Z,3.52
2018-12-05T15:34:12.140Z,3.61
2018-12-05T15:36:40.591Z,3.71
2018-12-05T15:39:08.055Z,3.67
2018-12-05T15:41:35.659Z,3.63
2018-12-05T15:44:02.979Z,3.59
2018-12-05T15:46:30.295Z,3.54
2018-12-05T15:48:57.740Z,3.41
2018-12-05T15:51:25.063Z,3.38
2018-12-05T15:53:52.403Z,3.48
2018-12-05T15:56:19.743Z,3.43
2018-12-05T15:58:47.061Z,3.29
2018-12-05T16:01:14.382Z,3.47
2018-12-05T16:03:43.375Z,3.40
2018-12-05T16:06:11.028Z,3.46
2018-12-05T16:08:38.335Z,3.43
2018-12-05T16:11:05.980Z,3.43
2018-12-05T16:13:33.287Z,3.25
2018-12-05T16:16:00.588Z,3.21
2018-12-05T16:18:27.923Z,3.25
2018-12-05T16:20:55.275Z,3.26
2018-12-05T16:23:22.754Z,3.26
2018-12-05T16:25:50.072Z,3.23
2018-12-05T16:28:17.514Z,3.12
2018-12-05T16:30:44.819Z,3.03
2018-12-05T16:33:12.141Z,2.95
2018-12-05T16:35:39.445Z,3.08
2018-12-05T16:38:06.931Z,3.21
2018-12-05T16:40:34.263Z,3.11
2018-12-05T16:43:01.595Z,3.00
2018-12-05T16:48:21.803Z,3.03
2018-12-05T16:50:49.151Z,2.97
2018-12-05T16:53:16.515Z,3.10
2018-12-05T16:55:43.823Z,3.00
2018-12-05T16:58:11.271Z,3.17
2018-12-05T17:00:38.602Z,3.06
2018-12-05T17:03:05.967Z,3.00
2018-12-05T17:05:33.307Z,3.22
2018-12-05T17:08:00.646Z,3.29
2018-12-05T17:10:27.972Z,3.11
2018-12-05T17:12:55.539Z,3.20
2018-12-05T17:15:22.896Z,3.14
2018-12-05T17:17:51.280Z,3.20
2018-12-05T17:20:18.642Z,3.39
2018-12-05T17:22:46.003Z,3.23
2018-12-05T17:25:13.347Z,3.21
2018-12-05T17:27:40.658Z,3.18
2018-12-05T17:30:08.238Z,3.30
2018-12-05T17:32:35.595Z,3.38
2018-12-05T17:35:03.720Z,3.22
2018-12-05T17:37:31.072Z,3.18
2018-12-05T17:39:58.408Z,3.26
2018-12-05T17:42:27.075Z,3.20
2018-12-05T17:44:54.391Z,3.38
2018-12-05T17:47:21.727Z,3.78
2018-12-05T17:49:49.095Z,3.95
2018-12-05T17:52:16.415Z,3.87
2018-12-05T17:55:00.698Z,3.57
2018-12-05T17:57:28.979Z,3.65
2018-12-05T17:59:56.299Z,3.54
2018-12-05T18:02:23.592Z,3.50
2018-12-05T18:04:51.947Z,3.53
2018-12-05T18:07:19.252Z,3.52
2018-12-05T18:09:46.554Z,3.62
2018-12-05T18:12:13.868Z,3.42
2018-12-05T18:14:42.388Z,3.61
2018-12-05T18:17:09.734Z,3.46
2018-12-05T18:19:37.128Z,3.56
2018-12-05T18:22:04.469Z,3.70
2018-12-05T18:24:31.827Z,3.56
2018-12-05T18:26:59.272Z,3.56
2018-12-05T18:29:26.659Z,3.66
2018-12-05T18:31:53.995Z,3.89
2018-12-05T18:34:21.351Z,3.71
2018-12-05T18:36:48.668Z,3.72
2018-12-05T18:39:16.019Z,3.73
2018-12-05T18:41:43.364Z,3.93
2018-12-05T18:44:10.751Z,3.85
2018-12-05T18:46:38.091Z,3.99
2018-12-05T18:49:05.462Z,4.04
2018-12-05T18:51:32.784Z,3.83
2018-12-05T18:54:00.137Z,3.77
2018-12-05T18:56:27.490Z,3.87
2018-12-05T18:58:54.849Z,3.97
2018-12-05T19:01:22.199Z,3.93
2018-12-05T19:03:49.633Z,3.93
2018-12-05T19:06:16.953Z,4.06
2018-12-05T19:08:44.299Z,4.07
2018-12-05T19:11:11.663Z,4.11
2018-12-05T19:13:45.061Z,3.89
2018-12-05T19:16:12.432Z,4.04
2018-12-05T19:18:39.938Z,4.10
2018-12-05T19:21:07.277Z,4.12
2018-12-05T19:23:34.598Z,4.21
2018-12-05T19:26:01.943Z,4.27
2018-12-05T19:28:29.439Z,4.31
2018-12-05T19:30:56.780Z,3.94
2018-12-05T19:33:24.091Z,4.10
2018-12-05T19:35:52.490Z,4.13
2018-12-05T19:38:20.619Z,4.45
2018-12-05T19:40:48.067Z,4.14
2018-12-05T19:43:15.383Z,4.39
2018-12-05T19:45:42.931Z,4.11
2018-12-05T19:48:10.270Z,4.16
2018-12-05T19:50:37.588Z,4.26
2018-12-05T19:53:04.906Z,4.20
2018-12-05T19:55:32.204Z,4.34
2018-12-05T19:58:00.550Z,4.27
2018-12-05T20:00:28.190Z,4.16
2018-12-05T20:02:57.564Z,4.15
2018-12-05T20:08:55.846Z,4.14
2018-12-05T20:11:23.342Z,4.24
2018-12-05T20:13:50.639Z,4.13
2018-12-05T20:16:19.534Z,4.35
2018-12-05T20:18:46.859Z,4.36
2018-12-05T20:21:14.146Z,4.30
2018-12-05T20:23:41.447Z,4.28
2018-12-05T20:26:08.773Z,4.23
2018-12-05T20:28:36.097Z,4.42
2018-12-05T20:31:03.477Z,4.36
2018-12-05T20:33:30.816Z,4.37
2018-12-05T20:35:58.140Z,4.28
2018-12-05T20:38:25.499Z,4.53
2018-12-05T20:40:52.829Z,4.57
2018-12-05T20:43:20.159Z,4.47
2018-12-05T20:45:47.493Z,4.51
2018-12-05T20:48:14.898Z,4.81
2018-12-05T20:50:43.275Z,4.54
2018-12-05T20:53:10.612Z,4.66
2018-12-05T20:55:38.059Z,4.88
2018-12-05T20:58:05.567Z,4.60
2018-12-05T21:00:32.895Z,4.59
2018-12-05T21:03:00.247Z,4.71
2018-12-05T21:05:27.676Z,4.92
2018-12-05T21:07:55.339Z,4.65
2018-12-05T21:10:22.703Z,4.54
2018-12-05T21:12:50.006Z,4.75
2018-12-05T21:15:17.366Z,4.82
2018-12-05T21:17:44.801Z,4.64
2018-12-05T21:20:12.163Z,4.78
2018-12-05T21:22:46.925Z,4.79
2018-12-05T21:25:08.838Z,4.82
2018-12-05T21:27:36.179Z,4.88
2018-12-05T21:30:05.913Z,4.74
2018-12-05T21:32:33.229Z,4.52
2018-12-05T21:35:00.555Z,4.72
2018-12-05T21:37:27.863Z,4.57
2018-12-05T21:39:55.183Z,4.64
2018-12-05T21:42:22.623Z,4.86
2018-12-05T21:44:49.938Z,4.78
2018-12-05T21:47:17.230Z,4.66
2018-12-05T21:49:44.552Z,4.55
2018-12-05T21:52:11.891Z,4.78
2018-12-05T21:54:39.194Z,4.82
2018-12-05T21:57:06.635Z,4.61
2018-12-05T21:59:34.075Z,4.71
2018-12-05T22:02:01.483Z,4.61
2018-12-05T22:04:28.967Z,4.68
2018-12-05T22:06:56.368Z,4.64
2018-12-05T22:09:23.735Z,4.60
2018-12-05T22:11:51.108Z,4.75
2018-12-05T22:14:18.451Z,4.72
2018-12-05T22:16:45.781Z,4.54
2018-12-05T22:19:13.222Z,4.68
2018-12-05T22:21:40.547Z,4.65
2018-12-05T22:24:08.032Z,4.77
2018-12-05T22:26:35.459Z,4.82
2018-12-05T22:29:02.803Z,4.84
2018-12-05T22:31:30.123Z,4.66
2018-12-05T22:33:59.203Z,4.81
2018-12-05T22:36:26.603Z,4.78
2018-12-05T22:38:53.936Z,4.76
2018-12-05T22:41:21.291Z,4.61
2018-12-05T22:43:48.595Z,4.73
2018-12-05T22:46:18.246Z,4.58
2018-12-05T22:48:45.666Z,4.71
2018-12-05T22:51:12.972Z,4.92
2018-12-05T22:53:40.301Z,4.68
2018-12-05T22:56:07.840Z,4.64
2018-12-05T22:58:35.155Z,4.58
2018-12-05T23:01:03.313Z,4.76
2018-12-05T23:03:32.843Z,4.69
2018-12-05T23:06:00.166Z,4.56
2018-12-05T23:08:28.127Z,4.53
2018-12-05T23:10:55.504Z,4.48
2018-12-05T23:13:22.823Z,4.45
2018-12-05T23:15:50.147Z,4.72
2018-12-05T23:18:17.479Z,4.32
2018-12-05T23:20:44.843Z,4.39
2018-12-05T23:23:12.163Z,4.53
2018-12-05T23:25:39.503Z,4.65
2018-12-05T23:28:06.995Z,4.72
2018-12-05T23:30:34.304Z,4.56
2018-12-05T23:33:01.724Z,4.59
2018-12-05T23:35:29.271Z,4.66
2018-12-05T23:37:56.591Z,4.65
2018-12-05T23:40:23.918Z,4.46
2018-12-05T23:42:51.387Z,4.68
2018-12-05T23:45:18.881Z,4.60
2018-12-05T23:47:46.312Z,4.67
2018-12-05T23:50:13.654Z,4.75
2018-12-05T23:52:40.990Z,4.78
2018-12-05T23:55:08.366Z,4.62
2018-12-05T23:57:35.743Z,4.61
